createdAt,value
2023-04-15T00:01:19.815Z,100274.16
2023-04-15T00:03:48.981Z,100282.20
2023-04-15T00:06:18.012Z,100291.32
2023-04-15T00:08:47.775Z,100299.55
2023-04-15T00:11:18.479Z,100308.41
2023-04-15T00:13:47.197Z,100307.09
2023-04-15T00:16:15.959Z,100298.06
2023-04-15T00:18:44.635Z,100297.71
2023-04-15T00:21:13.375Z,100305.26
2023-04-15T00:23:42.060Z,100309.13
2023-04-15T00:26:10.787Z,100316.84
2023-04-15T00:28:39.516Z,100324.32
2023-04-15T00:31:08.258Z,100326.73
2023-04-15T00:33:37.067Z,100325.64
2023-04-15T00:36:08.766Z,100318.70
2023-04-15T00:38:39.472Z,100317.22
2023-04-15T00:41:09.281Z,100312.75
2023-04-15T00:43:38.419Z,100304.91
2023-04-15T00:46:07.805Z,100302.71
2023-04-15T00:48:37.424Z,100295.02
2023-04-15T00:51:07.350Z,100293.40
2023-04-15T00:53:36.119Z,100296.71
2023-04-15T00:56:05.591Z,100296.05
2023-04-15T00:58:34.700Z,100284.23
2023-04-15T01:01:04.618Z,100287.19
2023-04-15T01:03:33.521Z,100297.91
2023-04-15T01:06:04.145Z,100304.06
2023-04-15T01:08:33.163Z,100298.98
2023-04-15T01:11:03.844Z,100299.63
2023-04-15T01:13:34.680Z,100297.16
2023-04-15T01:16:03.552Z,100298.46
2023-04-15T01:18:32.935Z,100293.67
2023-04-15T01:21:04.969Z,100292.48
2023-04-15T01:23:40.285Z,100290.77
2023-04-15T01:26:12.242Z,100296.15
2023-04-15T01:28:41.165Z,100310.47
2023-04-15T01:31:13.833Z,100317.84
2023-04-15T01:33:43.820Z,100320.05
2023-04-15T01:36:12.466Z,100333.45
2023-04-15T01:38:41.419Z,100336.02
2023-04-15T01:41:10.145Z,100337.91
2023-04-15T01:43:38.866Z,100341.52
2023-04-15T01:46:07.578Z,100335.84
2023-04-15T01:48:36.277Z,100315.20
2023-04-15T01:51:05.863Z,100307.19
2023-04-15T01:53:34.698Z,100302.98
2023-04-15T01:56:04.523Z,100297.36
2023-04-15T01:58:33.469Z,100297.38
2023-04-15T02:01:03.241Z,100297.63
2023-04-15T02:03:34.249Z,100294.50
2023-04-15T02:06:03.021Z,100293.99
2023-04-15T02:08:31.851Z,100287.75
2023-04-15T02:11:01.400Z,100282.48
2023-04-15T02:13:31.059Z,100284.16
2023-04-15T02:16:04.060Z,100288.52
2023-04-15T02:18:32.897Z,100287.89
2023-04-15T02:21:01.744Z,100273.02
2023-04-15T02:23:30.482Z,100267.12
2023-04-15T02:26:00.132Z,100275.09
2023-04-15T02:28:28.848Z,100276.16
2023-04-15T02:30:59.388Z,100280.15
2023-04-15T02:33:28.237Z,100281.36
2023-04-15T02:35:56.901Z,100278.95
2023-04-15T02:38:25.789Z,100279.05
2023-04-15T02:40:54.791Z,100272.89
2023-04-15T02:43:23.973Z,100264.42
2023-04-15T02:45:53.434Z,100266.86
2023-04-15T02:48:22.364Z,100274.34
2023-04-15T02:50:51.956Z,100272.33
2023-04-15T02:53:21.168Z,100251.89
2023-04-15T02:55:49.788Z,100248.20
2023-04-15T02:58:18.500Z,100244.85
2023-04-15T03:00:47.197Z,100248.09
2023-04-15T03:03:16.150Z,100257.34
2023-04-15T03:05:45.147Z,100267.88
2023-04-15T03:08:15.134Z,100277.42
2023-04-15T03:10:43.803Z,100288.70
2023-04-15T03:13:12.528Z,100304.70
2023-04-15T03:15:42.355Z,100312.90
2023-04-15T03:18:11.638Z,100327.62
2023-04-15T03:20:42.245Z,100340.18
2023-04-15T03:23:11.299Z,100336.56
2023-04-15T03:25:40.837Z,100318.03
2023-04-15T03:28:10.413Z,100307.43
2023-04-15T03:30:39.176Z,100309.35
2023-04-15T03:33:08.753Z,100321.81
2023-04-15T03:35:38.416Z,100328.69
2023-04-15T03:38:07.290Z,100333.56
2023-04-15T03:40:36.056Z,100326.74
2023-04-15T03:43:04.790Z,100324.48
2023-04-15T03:45:33.844Z,100328.33
2023-04-15T03:50:34.105Z,100321.95
2023-04-15T03:53:02.838Z,100324.66
2023-04-15T03:55:31.859Z,100327.78
2023-04-15T03:58:00.523Z,100341.63
2023-04-15T04:00:29.290Z,100363.93
2023-04-15T04:02:58.204Z,100372.05
2023-04-15T04:05:26.984Z,100377.09
2023-04-15T04:07:55.711Z,100385.98
2023-04-15T04:10:24.441Z,100392.83
2023-04-15T04:12:53.122Z,100400.83
2023-04-15T04:15:21.862Z,100398.86
2023-04-15T04:17:51.073Z,100391.27
2023-04-15T04:20:19.811Z,100386.58
2023-04-15T04:22:48.578Z,100394.13
2023-04-15T04:25:17.788Z,100390.26
2023-04-15T04:27:46.591Z,100384.60
2023-04-15T04:30:15.257Z,100383.33
2023-04-15T04:32:43.999Z,100381.38
2023-04-15T04:35:12.949Z,100381.36
2023-04-15T04:37:41.640Z,100389.34
2023-04-15T04:40:11.056Z,100402.44
2023-04-15T04:42:40.156Z,100404.92
2023-04-15T04:45:09.666Z,100407.75
2023-04-15T04:47:38.402Z,100401.55
2023-04-15T04:50:09.298Z,100405.71
2023-04-15T04:52:38.584Z,100405.67
2023-04-15T04:55:08.790Z,100410.38
2023-04-15T04:57:39.643Z,100406.26
2023-04-15T05:00:09.285Z,100409.32
2023-04-15T05:02:38.248Z,100406.68
2023-04-15T05:05:08.084Z,100403.70
2023-04-15T05:07:36.942Z,100405.23
2023-04-15T05:10:06.831Z,100402.76
2023-04-15T05:12:37.697Z,100404.27
2023-04-15T05:15:07.643Z,100394.36
2023-04-15T05:17:36.498Z,100385.14
2023-04-15T05:20:05.885Z,100377.70
2023-04-15T05:22:34.673Z,100381.52
2023-04-15T05:25:03.634Z,100385.88
2023-04-15T05:27:32.450Z,100388.90
2023-04-15T05:30:01.353Z,100390.88
2023-04-15T05:32:30.091Z,100392.36
2023-04-15T05:34:58.925Z,100396.80
2023-04-15T05:37:27.617Z,100400.91
2023-04-15T05:39:56.958Z,100404.68
2023-04-15T05:42:25.835Z,100401.95
2023-04-15T05:44:54.516Z,100406.92
2023-04-15T05:47:23.394Z,100408.38
2023-04-15T05:49:52.500Z,100409.84
2023-04-15T05:52:21.488Z,100419.11
2023-04-15T05:54:50.196Z,100425.73
2023-04-15T05:57:18.901Z,100427.75
2023-04-15T05:59:47.805Z,100435.13
2023-04-15T06:02:16.603Z,100433.32
2023-04-15T06:04:45.642Z,100436.94
2023-04-15T06:07:14.546Z,100426.75
2023-04-15T06:09:43.256Z,100426.45
2023-04-15T06:12:13.360Z,100427.23
2023-04-15T06:14:42.150Z,100414.88
2023-04-15T06:17:11.019Z,100420.27
2023-04-15T06:19:39.856Z,100427.48
2023-04-15T06:22:09.398Z,100425.58
2023-04-15T06:24:38.134Z,100426.08
2023-04-15T06:27:06.787Z,100423.30
2023-04-15T06:29:35.800Z,100414.52
2023-04-15T06:32:04.520Z,100421.35
2023-04-15T06:34:33.334Z,100422.95
2023-04-15T06:37:02.973Z,100422.59
2023-04-15T06:39:33.767Z,100424.73
2023-04-15T06:42:03.609Z,100434.98
2023-04-15T06:44:33.788Z,100444.08
2023-04-15T06:47:03.002Z,100458.70
2023-04-15T06:49:32.058Z,100470.33
2023-04-15T06:52:01.842Z,100476.73
2023-04-15T06:54:30.590Z,100467.15
2023-04-15T06:56:59.255Z,100460.80
2023-04-15T06:59:27.918Z,100462.48
2023-04-15T07:01:56.885Z,100457.98
2023-04-15T07:04:26.161Z,100456.02
2023-04-15T07:06:55.823Z,100459.20
2023-04-15T07:09:24.970Z,100466.10
2023-04-15T07:11:53.730Z,100473.66
2023-04-15T07:14:22.879Z,100467.41
2023-04-15T07:16:51.803Z,100459.88
2023-04-15T07:19:20.608Z,100463.00
2023-04-15T07:21:49.876Z,100475.80
2023-04-15T07:24:20.284Z,100481.55
2023-04-15T07:26:49.530Z,100478.95
2023-04-15T07:29:18.658Z,100476.04
2023-04-15T07:31:47.539Z,100489.17
2023-04-15T07:34:16.892Z,100491.45
2023-04-15T07:36:46.212Z,100492.33
2023-04-15T07:39:15.002Z,100484.05
2023-04-15T07:41:43.944Z,100497.04
2023-04-15T07:44:12.825Z,100499.36
2023-04-15T07:46:41.661Z,100499.36
2023-04-15T07:49:10.386Z,100504.34
2023-04-15T07:51:39.227Z,100506.08
2023-04-15T07:54:07.966Z,100504.64
2023-04-15T07:56:36.792Z,100499.44
2023-04-15T07:59:06.731Z,100505.88
2023-04-15T08:01:35.959Z,100511.65
2023-04-15T08:04:07.569Z,100517.51
2023-04-15T08:06:40.157Z,100517.80
2023-04-15T08:09:09.283Z,100519.42
2023-04-15T08:11:38.389Z,100521.09
2023-04-15T08:14:07.163Z,100519.56
2023-04-15T08:16:36.336Z,100523.71
2023-04-15T08:19:05.767Z,100534.00
2023-04-15T08:21:34.841Z,100539.00
2023-04-15T08:24:03.948Z,100530.11
2023-04-15T08:26:32.994Z,100527.16
2023-04-15T08:29:02.018Z,100532.98
2023-04-15T08:31:31.242Z,100532.08
2023-04-15T08:34:04.594Z,100527.88
2023-04-15T08:36:34.218Z,100526.06
2023-04-15T08:39:05.131Z,100525.83
2023-04-15T08:42:02.768Z,100523.31
2023-04-15T08:44:37.036Z,100525.35
2023-04-15T08:47:09.422Z,100525.81
2023-04-15T08:49:41.528Z,100520.19
2023-04-15T08:52:10.649Z,100523.36
2023-04-15T08:54:40.243Z,100525.11
2023-04-15T08:57:09.572Z,100533.65
2023-04-15T08:59:38.662Z,100534.40
2023-04-15T09:02:10.098Z,100537.25
2023-04-15T09:04:42.790Z,100543.23
2023-04-15T09:07:12.583Z,100541.84
2023-04-15T09:09:50.591Z,100537.00
2023-04-15T09:12:26.707Z,100527.88
2023-04-15T09:14:58.887Z,100517.44
2023-04-15T09:17:28.084Z,100512.91
2023-04-15T09:20:16.901Z,100512.79
2023-04-15T09:22:49.070Z,100522.25
2023-04-15T09:25:31.089Z,100531.81
2023-04-15T09:28:02.965Z,100535.13
2023-04-15T09:30:32.032Z,100536.55
2023-04-15T09:33:05.127Z,100533.36
2023-04-15T09:35:35.786Z,100534.81
2023-04-15T09:38:10.189Z,100535.02
2023-04-15T09:40:43.452Z,100538.00
2023-04-15T09:43:17.985Z,100536.89
2023-04-15T09:45:54.087Z,100533.02
2023-04-15T09:48:27.447Z,100534.05
2023-04-15T09:51:00.717Z,100533.60
2023-04-15T09:53:31.854Z,100533.55
2023-04-15T09:56:02.906Z,100520.52
2023-04-15T09:58:35.899Z,100524.32
2023-04-15T10:01:06.537Z,100530.48
2023-04-15T10:03:37.801Z,100533.07
2023-04-15T10:06:07.292Z,100533.18
2023-04-15T10:08:35.979Z,100530.52
2023-04-15T10:11:07.181Z,100529.53
2023-04-15T10:13:39.149Z,100528.23
2023-04-15T10:16:15.434Z,100534.80
2023-04-15T10:18:47.232Z,100535.33
2023-04-15T10:21:18.901Z,100544.04
2023-04-15T10:23:48.475Z,100545.91
2023-04-15T10:26:17.926Z,100549.72
2023-04-15T10:28:48.482Z,100545.00
2023-04-15T10:31:18.628Z,100537.46
2023-04-15T10:33:48.928Z,100529.23
2023-04-15T10:36:20.063Z,100523.61
2023-04-15T10:38:48.772Z,100522.73
2023-04-15T10:41:31.446Z,100512.70
2023-04-15T10:44:01.402Z,100498.73
2023-04-15T10:46:40.263Z,100500.68
2023-04-15T10:49:24.648Z,100516.61
2023-04-15T10:51:59.313Z,100525.21
2023-04-15T10:54:28.106Z,100523.13
2023-04-15T10:57:08.801Z,100514.73
2023-04-15T11:00:01.300Z,100504.49
2023-04-15T11:02:57.682Z,100496.48
2023-04-15T11:05:41.762Z,100512.08
2023-04-15T11:08:14.010Z,100513.48
2023-04-15T11:10:42.631Z,100510.60
2023-04-15T11:13:11.297Z,100506.77
2023-04-15T11:15:42.087Z,100494.31
2023-04-15T11:18:15.102Z,100495.52
2023-04-15T11:20:54.961Z,100503.51
2023-04-15T11:23:32.311Z,100509.70
2023-04-15T11:26:05.738Z,100502.02
2023-04-15T11:28:34.805Z,100492.23
2023-04-15T11:31:10.861Z,100492.55
2023-04-15T11:33:57.190Z,100487.02
2023-04-15T11:36:35.038Z,100488.77
2023-04-15T11:39:07.772Z,100487.35
2023-04-15T11:41:36.658Z,100486.55
2023-04-15T11:44:18.176Z,100486.62
2023-04-15T11:46:46.957Z,100485.92
2023-04-15T11:49:31.497Z,100483.36
2023-04-15T11:52:01.353Z,100480.02
2023-04-15T11:54:30.486Z,100484.20
2023-04-15T11:57:00.405Z,100478.31
2023-04-15T11:59:45.796Z,100476.98
2023-04-15T12:02:14.996Z,100474.79
2023-04-15T12:04:44.215Z,100473.77
2023-04-15T12:07:13.133Z,100471.39
2023-04-15T12:09:42.708Z,100468.56
2023-04-15T12:12:12.661Z,100470.48
2023-04-15T12:14:42.472Z,100474.02
2023-04-15T12:17:11.709Z,100481.36
2023-04-15T12:19:43.390Z,100480.86
2023-04-15T12:22:15.910Z,100475.09
2023-04-15T12:24:48.149Z,100466.30
2023-04-15T12:27:17.987Z,100465.72
2023-04-15T12:29:46.791Z,100464.58
2023-04-15T12:32:23.004Z,100461.58
2023-04-15T12:34:53.480Z,100454.61
2023-04-15T12:37:22.426Z,100455.84
2023-04-15T12:39:52.537Z,100458.48
2023-04-15T12:42:22.783Z,100462.81
2023-04-15T12:44:51.545Z,100462.09
2023-04-15T12:47:20.431Z,100463.91
2023-04-15T12:49:49.835Z,100468.73
2023-04-15T12:52:18.709Z,100479.52
2023-04-15T12:54:47.393Z,100484.27
2023-04-15T12:57:16.336Z,100483.19
2023-04-15T12:59:45.787Z,100483.48
2023-04-15T13:02:14.625Z,100488.54
2023-04-15T13:04:43.666Z,100485.00
2023-04-15T13:10:39.465Z,100479.20
2023-04-15T13:13:08.982Z,100474.04
2023-04-15T13:15:38.533Z,100472.33
2023-04-15T13:18:07.986Z,100476.64
2023-04-15T13:20:36.877Z,100480.17
2023-04-15T13:23:05.789Z,100474.80
2023-04-15T13:25:34.695Z,100472.40
2023-04-15T13:28:03.760Z,100472.70
2023-04-15T13:30:32.600Z,100461.47
2023-04-15T13:33:01.556Z,100469.23
2023-04-15T13:35:30.594Z,100472.91
2023-04-15T13:37:59.526Z,100472.36
2023-04-15T13:40:28.757Z,100475.42
2023-04-15T13:42:58.952Z,100473.34
2023-04-15T13:45:27.771Z,100472.76
2023-04-15T13:48:00.287Z,100470.11
2023-04-15T13:50:29.691Z,100471.52
2023-04-15T13:52:58.547Z,100479.31
2023-04-15T13:55:28.501Z,100479.60
2023-04-15T13:57:58.052Z,100473.54
2023-04-15T14:00:27.168Z,100474.98
2023-04-15T14:02:56.030Z,100484.67
2023-04-15T14:05:25.222Z,100485.41
2023-04-15T14:07:54.282Z,100481.93
2023-04-15T14:10:23.102Z,100475.62
2023-04-15T14:12:51.999Z,100473.45
2023-04-15T14:15:21.605Z,100473.87
2023-04-15T14:17:50.437Z,100476.95
2023-04-15T14:20:19.293Z,100482.03
2023-04-15T14:22:48.182Z,100483.91
2023-04-15T14:25:30.461Z,100490.75
2023-04-15T14:28:03.687Z,100494.89
2023-04-15T14:30:32.561Z,100492.34
2023-04-15T14:33:02.076Z,100490.02
2023-04-15T14:35:31.354Z,100494.58
2023-04-15T14:38:00.178Z,100495.02
2023-04-15T14:40:28.904Z,100494.55
2023-04-15T14:42:57.633Z,100501.73
2023-04-15T14:45:26.381Z,100498.78
2023-04-15T14:47:55.200Z,100495.08
2023-04-15T14:50:24.076Z,100494.86
2023-04-15T14:52:52.821Z,100483.81
2023-04-15T14:55:21.616Z,100495.66
2023-04-15T14:57:50.418Z,100498.23
2023-04-15T15:00:19.343Z,100497.45
2023-04-15T15:02:48.291Z,100497.32
2023-04-15T15:05:17.191Z,100496.44
2023-04-15T15:07:46.124Z,100500.65
2023-04-15T15:10:14.943Z,100503.67
2023-04-15T15:12:43.708Z,100512.39
2023-04-15T15:15:25.110Z,100518.41
2023-04-15T15:17:57.357Z,100520.52
2023-04-15T15:20:26.928Z,100520.13
2023-04-15T15:22:56.856Z,100523.19
2023-04-15T15:25:26.247Z,100530.36
2023-04-15T15:27:55.074Z,100528.73
2023-04-15T15:30:23.881Z,100522.98
2023-04-15T15:32:52.657Z,100521.64
2023-04-15T15:35:23.139Z,100511.98
2023-04-15T15:37:52.641Z,100523.19
2023-04-15T15:40:21.717Z,100519.73
2023-04-15T15:42:51.095Z,100521.58
2023-04-15T15:45:19.852Z,100522.13
2023-04-15T15:47:48.840Z,100526.76
2023-04-15T15:50:17.633Z,100529.92
2023-04-15T15:52:46.289Z,100532.54
2023-04-15T15:55:15.079Z,100536.11
2023-04-15T15:57:43.848Z,100540.84
2023-04-15T16:00:13.431Z,100539.39
2023-04-15T16:05:14.443Z,100539.11
2023-04-15T16:07:43.283Z,100540.83
2023-04-15T16:10:14.296Z,100542.13
2023-04-15T16:12:44.936Z,100540.50
2023-04-15T16:15:14.082Z,100545.67
2023-04-15T16:17:43.333Z,100546.02
2023-04-15T16:20:12.099Z,100540.35
2023-04-15T16:22:40.898Z,100536.58
2023-04-15T16:25:10.719Z,100539.30
2023-04-15T16:30:12.761Z,100552.17
2023-04-15T16:32:41.716Z,100555.94
2023-04-15T16:35:11.768Z,100556.45
2023-04-15T16:37:40.513Z,100562.91
